CheckWX is a tool to help pilots better visualize weather data.  It is not intended as a substitute for an official pre-flight weather briefing.

11:40:47 UTC

KCRQ TAF
Mc Clellan-Palomar Airport
Carlsbad, California, USA
KCRQ 231120Z 2312/2412 VRB04KT P6SM SKC FM232000 26007KT P6SM SKC FM240100 VRB04KT P6SM FEW008 SCT250

Jan-23@
12:00 UTC

Jan-23 @ 12:00 UTC

Jan-23@
20:00 UTC

Jan-23 @ 20:00 UTC

KCRQ 231120Z 2312/2412 VRB04KT P6SM SKC
Wind
  • Variable at 4 KTS
Cloud Levels
  • Clear skies

Jan-23@
20:00 UTC

Jan-23 @ 20:00 UTC

Jan-24@
01:00 UTC

Jan-24 @ 01:00 UTC

FM232000 26007KT P6SM SKC

From

From Standard forecast or significant change

Wind
  • 260° at 7 KTS
Cloud Levels
  • Clear skies

Jan-24@
01:00 UTC

Jan-24 @ 01:00 UTC

Jan-24@
12:00 UTC

Jan-24 @ 12:00 UTC

FM240100 VRB04KT P6SM FEW008 SCT250

From

From Standard forecast or significant change

Wind
  • Variable at 4 KTS
Cloud Levels
  • Few at 800' AGL
  • Scattered at 25,000' AGL